createdAt,value
2023-04-27T00:02:04.884Z,79.88
2023-04-27T00:04:32.855Z,79.21
2023-04-27T00:07:00.210Z,79.95
2023-04-27T00:09:27.370Z,79.27
2023-04-27T00:11:55.394Z,79.01
2023-04-27T00:14:22.917Z,82.11
2023-04-27T00:16:50.364Z,81.46
2023-04-27T00:19:17.944Z,79.11
2023-04-27T00:21:45.187Z,79.06
2023-04-27T00:24:12.493Z,79.64
2023-04-27T00:26:40.020Z,78.46
2023-04-27T00:29:07.352Z,78.79
2023-04-27T00:31:34.589Z,78.29
2023-04-27T00:34:02.766Z,77.17
2023-04-27T00:36:30.076Z,76.12
2023-04-27T00:38:57.230Z,75.35
2023-04-27T00:41:24.908Z,74.04
2023-04-27T00:43:52.109Z,73.94
2023-04-27T00:46:19.967Z,72.65
2023-04-27T00:48:47.877Z,72.68
2023-04-27T00:51:15.148Z,71.47
2023-04-27T00:53:42.397Z,71.45
2023-04-27T00:56:09.840Z,71.23
2023-04-27T00:58:37.265Z,70.96
2023-04-27T01:01:05.847Z,71.53
2023-04-27T01:03:33.356Z,71.97
2023-04-27T01:06:01.906Z,71.55
2023-04-27T01:08:29.718Z,71.45
2023-04-27T01:10:57.260Z,72.51
2023-04-27T01:13:24.656Z,72.66
2023-04-27T01:15:51.825Z,72.64
2023-04-27T01:18:19.517Z,72.54
2023-04-27T01:20:46.702Z,73.54
2023-04-27T01:23:16.825Z,75.58
2023-04-27T01:25:45.192Z,76.40
2023-04-27T01:28:12.769Z,78.42
2023-04-27T01:30:39.938Z,79.23
2023-04-27T01:33:07.364Z,78.82
2023-04-27T01:35:34.566Z,78.75
2023-04-27T01:38:02.734Z,80.03
2023-04-27T01:40:30.584Z,80.34
2023-04-27T01:42:58.055Z,79.48
2023-04-27T01:45:25.422Z,80.94
2023-04-27T01:47:53.321Z,81.42
2023-04-27T01:50:20.922Z,81.61
2023-04-27T01:52:48.458Z,82.36
2023-04-27T01:55:15.974Z,83.69
2023-04-27T01:57:43.218Z,84.91
2023-04-27T02:00:10.985Z,84.81
2023-04-27T02:02:47.852Z,85.77
2023-04-27T02:05:15.839Z,88.29
2023-04-27T02:07:42.972Z,86.86
2023-04-27T02:10:10.998Z,86.62
2023-04-27T02:12:38.558Z,89.10
2023-04-27T02:15:08.733Z,88.56
2023-04-27T02:17:36.235Z,88.23
2023-04-27T02:20:05.467Z,88.85
2023-04-27T02:22:32.862Z,88.21
2023-04-27T02:25:00.534Z,89.34
2023-04-27T02:27:27.716Z,89.39
2023-04-27T02:29:55.288Z,87.64
2023-04-27T02:32:23.301Z,88.71
2023-04-27T02:34:50.745Z,87.79
2023-04-27T02:37:19.080Z,89.03
2023-04-27T02:39:47.355Z,89.46
2023-04-27T02:42:16.496Z,89.14
2023-04-27T02:44:43.613Z,90.84
2023-04-27T02:47:11.524Z,91.30
2023-04-27T02:49:39.752Z,90.94
2023-04-27T02:52:07.419Z,91.18
2023-04-27T02:54:34.798Z,91.92
2023-04-27T02:57:02.597Z,92.57
2023-04-27T02:59:29.856Z,93.29
2023-04-27T03:01:57.068Z,92.36
2023-04-27T03:04:24.565Z,91.57
2023-04-27T03:06:51.891Z,91.31
2023-04-27T03:09:19.175Z,91.89
2023-04-27T03:11:46.733Z,91.47
2023-04-27T03:14:13.957Z,92.15
2023-04-27T03:16:41.119Z,91.94
2023-04-27T03:19:08.633Z,92.81
2023-04-27T03:21:36.444Z,92.19
2023-04-27T03:24:04.108Z,92.27
2023-04-27T03:26:31.723Z,91.84
2023-04-27T03:28:58.936Z,92.37
2023-04-27T03:31:28.697Z,93.67
2023-04-27T03:33:57.116Z,93.22
2023-04-27T03:36:24.281Z,92.48
2023-04-27T03:38:51.348Z,92.76
2023-04-27T03:41:18.911Z,91.30
2023-04-27T03:43:46.312Z,91.65
2023-04-27T03:46:13.655Z,90.80
2023-04-27T03:48:41.272Z,88.75
2023-04-27T03:51:08.987Z,90.05
2023-04-27T03:53:36.438Z,91.45
2023-04-27T03:56:04.072Z,91.30
2023-04-27T03:58:31.742Z,91.70
2023-04-27T04:01:01.505Z,91.16
2023-04-27T04:03:29.278Z,90.81
2023-04-27T04:05:56.546Z,89.96
2023-04-27T04:08:23.916Z,89.24
2023-04-27T04:10:51.438Z,88.52
2023-04-27T04:13:18.919Z,87.55
2023-04-27T04:15:46.185Z,87.87
2023-04-27T04:18:13.745Z,88.90
2023-04-27T04:20:40.990Z,86.78
2023-04-27T04:23:08.613Z,83.91
2023-04-27T04:25:36.494Z,83.42
2023-04-27T04:28:03.764Z,82.90
2023-04-27T04:30:31.064Z,81.78
2023-04-27T04:32:58.710Z,81.03
2023-04-27T04:35:25.983Z,79.71
2023-04-27T04:37:53.403Z,78.80
2023-04-27T04:40:21.590Z,78.32
2023-04-27T04:42:48.820Z,77.47
2023-04-27T04:45:16.064Z,75.92
2023-04-27T04:47:43.653Z,74.60
2023-04-27T04:50:11.916Z,73.53
2023-04-27T04:52:39.657Z,71.68
2023-04-27T04:55:07.376Z,71.51
2023-04-27T04:57:34.544Z,70.72
2023-04-27T05:00:02.068Z,68.84
2023-04-27T05:02:38.454Z,69.43
2023-04-27T05:05:05.947Z,68.54
2023-04-27T05:07:33.999Z,68.50
2023-04-27T05:10:01.270Z,66.30
2023-04-27T05:12:28.361Z,66.75
2023-04-27T05:14:55.778Z,65.02
2023-04-27T05:17:23.196Z,64.19
2023-04-27T05:19:50.341Z,64.32
2023-04-27T05:22:17.804Z,64.60
2023-04-27T05:24:45.069Z,63.80
2023-04-27T05:27:14.163Z,62.91
2023-04-27T05:29:42.289Z,64.32
2023-04-27T05:32:09.821Z,62.82
2023-04-27T05:34:37.176Z,63.77
2023-04-27T05:37:04.739Z,63.03
2023-04-27T05:39:32.048Z,63.33
2023-04-27T05:41:59.256Z,55.31
2023-04-27T05:44:29.361Z,45.06
2023-04-27T05:46:57.199Z,38.61
2023-04-27T05:49:24.458Z,35.51
2023-04-27T05:51:52.095Z,34.63
2023-04-27T05:54:19.240Z,31.56
2023-04-27T05:56:46.490Z,28.41
2023-04-27T05:59:14.121Z,25.94
2023-04-27T06:01:41.501Z,25.63
2023-04-27T06:04:09.456Z,23.84
2023-04-27T06:06:37.193Z,23.56
2023-04-27T06:09:04.612Z,21.70
2023-04-27T06:11:32.219Z,23.07
2023-04-27T06:13:59.464Z,22.08
2023-04-27T06:16:26.737Z,22.15
2023-04-27T06:18:54.381Z,21.61
2023-04-27T06:21:21.633Z,21.63
2023-04-27T06:23:49.028Z,19.91
2023-04-27T06:26:16.580Z,19.68
2023-04-27T06:28:43.706Z,19.24
2023-04-27T06:31:10.886Z,21.02
2023-04-27T06:33:38.388Z,20.46
2023-04-27T06:36:05.947Z,22.14
2023-04-27T06:38:33.212Z,24.52
2023-04-27T06:41:00.851Z,23.18
2023-04-27T06:43:27.956Z,24.18
2023-04-27T06:45:55.198Z,24.29
2023-04-27T06:48:22.872Z,24.86
2023-04-27T06:50:50.097Z,25.82
2023-04-27T06:53:17.500Z,24.72
2023-04-27T06:55:47.775Z,23.22
2023-04-27T06:58:15.646Z,24.40
2023-04-27T07:00:42.840Z,23.88
2023-04-27T07:03:10.623Z,25.13
2023-04-27T07:05:37.960Z,23.20
2023-04-27T07:08:08.270Z,23.62
2023-04-27T07:10:36.478Z,21.24
2023-04-27T07:13:03.738Z,24.18
2023-04-27T07:15:31.764Z,22.77
2023-04-27T07:17:59.550Z,22.93
2023-04-27T07:20:26.936Z,24.48
2023-04-27T07:22:54.289Z,23.38
2023-04-27T07:25:21.765Z,23.71
2023-04-27T07:27:49.301Z,24.30
2023-04-27T07:30:17.951Z,23.54
2023-04-27T07:32:46.529Z,24.71
2023-04-27T07:35:14.797Z,24.73
2023-04-27T07:37:44.546Z,27.61
2023-04-27T07:40:16.947Z,27.77
2023-04-27T07:42:46.415Z,25.94
2023-04-27T07:45:14.224Z,24.68
2023-04-27T07:47:42.609Z,27.86
2023-04-27T07:50:10.906Z,28.03
2023-04-27T07:52:38.955Z,25.99
2023-04-27T07:55:06.723Z,25.52
2023-04-27T07:57:34.957Z,24.78
2023-04-27T08:00:05.328Z,25.08
2023-04-27T08:02:40.139Z,24.87
2023-04-27T08:05:08.747Z,25.94
2023-04-27T08:07:42.549Z,28.42
2023-04-27T08:10:12.289Z,28.40
2023-04-27T08:12:39.661Z,28.35
2023-04-27T08:15:07.740Z,31.04
2023-04-27T08:17:36.615Z,30.38
2023-04-27T08:20:04.321Z,30.71
2023-04-27T08:22:31.633Z,32.66
2023-04-27T08:25:00.006Z,31.56
2023-04-27T08:30:57.368Z,27.84
2023-04-27T08:33:25.030Z,28.58
2023-04-27T08:35:54.641Z,29.57
2023-04-27T08:38:23.670Z,30.57
2023-04-27T08:40:52.469Z,29.68
2023-04-27T08:43:19.807Z,28.28
2023-04-27T08:45:50.639Z,26.67
2023-04-27T08:48:19.012Z,25.37
2023-04-27T08:50:50.750Z,28.12
2023-04-27T08:53:19.923Z,27.27
2023-04-27T08:55:47.642Z,27.50
2023-04-27T08:58:14.963Z,28.62
2023-04-27T09:00:44.236Z,28.53
2023-04-27T09:03:27.410Z,28.87
2023-04-27T09:06:03.878Z,30.49
2023-04-27T09:08:42.330Z,27.37
2023-04-27T09:11:10.330Z,27.86
2023-04-27T09:13:42.422Z,28.27
2023-04-27T09:16:10.288Z,30.72
2023-04-27T09:18:38.209Z,31.17
2023-04-27T09:21:05.677Z,31.53
2023-04-27T09:23:34.253Z,31.91
2023-04-27T09:26:04.161Z,28.96
2023-04-27T09:28:32.448Z,27.06
2023-04-27T09:31:01.820Z,27.47
2023-04-27T09:33:33.689Z,25.89
2023-04-27T09:36:06.631Z,26.11
2023-04-27T09:38:34.433Z,25.76
2023-04-27T09:41:03.000Z,24.66
2023-04-27T09:43:31.717Z,28.28
2023-04-27T09:45:59.232Z,27.10
2023-04-27T09:48:27.065Z,27.96
2023-04-27T09:50:54.596Z,26.72
2023-04-27T09:53:26.892Z,25.22
2023-04-27T09:56:09.481Z,25.57
2023-04-27T09:58:48.954Z,24.81
2023-04-27T10:01:40.918Z,25.52
2023-04-27T10:04:27.745Z,27.35
2023-04-27T10:07:26.520Z,28.68
2023-04-27T10:10:03.059Z,29.72
2023-04-27T10:16:18.147Z,27.86
2023-04-27T10:18:55.581Z,31.08
2023-04-27T10:21:23.972Z,30.35
2023-04-27T10:23:53.365Z,30.12
2023-04-27T10:26:25.311Z,31.28
2023-04-27T10:28:58.135Z,29.12
2023-04-27T10:31:29.647Z,29.34
2023-04-27T10:34:11.618Z,29.67
2023-04-27T10:36:40.940Z,30.38
2023-04-27T10:39:17.023Z,31.54
2023-04-27T10:42:00.908Z,30.84
2023-04-27T10:44:31.171Z,31.28
2023-04-27T10:47:00.868Z,32.39
2023-04-27T10:49:31.118Z,29.79
2023-04-27T10:55:31.003Z,29.04
2023-04-27T10:57:59.293Z,29.86
2023-04-27T11:00:33.968Z,30.66
2023-04-27T11:03:29.729Z,31.63
2023-04-27T11:06:02.564Z,30.86
2023-04-27T11:08:36.922Z,30.07
2023-04-27T11:11:06.225Z,30.40
2023-04-27T11:13:33.882Z,31.15
2023-04-27T11:16:01.477Z,30.97
2023-04-27T11:18:33.913Z,30.18
2023-04-27T11:21:19.135Z,29.94
2023-04-27T11:23:46.811Z,30.08
2023-04-27T11:26:26.704Z,31.13
2023-04-27T11:29:05.617Z,31.20
2023-04-27T11:35:03.516Z,32.05
2023-04-27T11:37:31.809Z,32.94
2023-04-27T11:40:00.627Z,32.53
2023-04-27T11:42:29.076Z,32.78
2023-04-27T11:44:58.574Z,32.58
2023-04-27T11:47:28.129Z,32.16
2023-04-27T11:50:00.661Z,31.18
2023-04-27T11:52:32.410Z,31.85
2023-04-27T11:55:01.176Z,31.05
2023-04-27T11:57:31.010Z,32.72
2023-04-27T12:00:03.175Z,32.94
2023-04-27T12:02:41.703Z,32.85
2023-04-27T12:05:10.213Z,33.35
2023-04-27T12:07:38.158Z,33.14
2023-04-27T12:10:06.913Z,33.56
2023-04-27T12:12:34.387Z,33.04
2023-04-27T12:15:01.759Z,31.91
2023-04-27T12:17:28.918Z,32.21
2023-04-27T12:19:56.576Z,32.10
2023-04-27T12:22:24.139Z,32.46
2023-04-27T12:24:51.658Z,32.38
2023-04-27T12:27:19.366Z,31.17
2023-04-27T12:30:19.684Z,32.05
2023-04-27T12:32:51.228Z,33.50
2023-04-27T12:35:19.971Z,32.96
2023-04-27T12:37:57.734Z,32.07
2023-04-27T12:40:25.677Z,31.75
2023-04-27T12:42:53.473Z,31.68
2023-04-27T12:45:21.243Z,32.46
2023-04-27T12:48:01.790Z,32.10
2023-04-27T12:50:34.515Z,32.04
2023-04-27T12:53:02.586Z,32.21
2023-04-27T12:55:33.586Z,31.37
2023-04-27T12:58:02.737Z,31.85
2023-04-27T13:00:30.159Z,32.38
2023-04-27T13:02:58.540Z,32.36
2023-04-27T13:05:26.587Z,32.36
2023-04-27T13:07:54.172Z,33.24
2023-04-27T13:10:21.515Z,33.30
2023-04-27T13:12:49.216Z,34.13
2023-04-27T13:15:16.506Z,32.27
2023-04-27T13:17:44.188Z,32.41
2023-04-27T13:20:12.413Z,33.76
2023-04-27T13:22:40.886Z,33.14
2023-04-27T13:25:09.748Z,32.99
2023-04-27T13:27:37.526Z,33.27
2023-04-27T13:30:05.497Z,34.06
2023-04-27T13:32:32.978Z,33.77
2023-04-27T13:35:00.789Z,33.60
2023-04-27T13:37:28.161Z,34.11
2023-04-27T13:39:55.488Z,32.61
2023-04-27T13:42:29.403Z,33.78
2023-04-27T13:44:57.290Z,33.17
2023-04-27T13:47:24.927Z,33.50
2023-04-27T13:49:52.242Z,32.80
2023-04-27T13:52:19.728Z,32.92
2023-04-27T13:54:47.268Z,32.17
2023-04-27T13:57:14.600Z,32.25
2023-04-27T13:59:42.095Z,32.11
2023-04-27T14:02:09.619Z,32.38
2023-04-27T14:04:37.263Z,32.56
2023-04-27T14:07:04.613Z,32.71
2023-04-27T14:09:32.026Z,32.84
2023-04-27T14:12:00.414Z,33.37
2023-04-27T14:14:27.690Z,33.23
2023-04-27T14:16:55.357Z,32.18
2023-04-27T14:19:23.081Z,32.21
2023-04-27T14:21:51.247Z,31.64
2023-04-27T14:24:18.912Z,32.50
2023-04-27T14:26:47.682Z,32.64
2023-04-27T14:29:15.560Z,32.01
2023-04-27T14:31:43.604Z,33.10
2023-04-27T14:34:11.354Z,32.75
2023-04-27T14:36:38.864Z,32.70
2023-04-27T14:39:06.873Z,31.80
2023-04-27T14:41:35.896Z,32.24
2023-04-27T14:44:07.638Z,32.15
2023-04-27T14:46:35.386Z,31.72
2023-04-27T14:49:02.756Z,31.79
2023-04-27T14:51:30.250Z,31.97
2023-04-27T14:53:57.860Z,32.05
2023-04-27T14:56:25.324Z,31.63
2023-04-27T14:58:52.537Z,32.70
2023-04-27T15:01:20.114Z,32.23
2023-04-27T15:03:47.614Z,31.11
2023-04-27T15:06:15.219Z,32.01
2023-04-27T15:08:42.835Z,32.96
2023-04-27T15:11:10.146Z,32.92
2023-04-27T15:13:37.428Z,32.68
2023-04-27T15:16:07.327Z,31.68
2023-04-27T15:18:35.430Z,32.42
2023-04-27T15:21:02.925Z,32.34
2023-04-27T15:23:30.511Z,31.91
2023-04-27T15:25:58.633Z,32.24
2023-04-27T15:28:26.352Z,31.91
2023-04-27T15:30:53.921Z,32.55
2023-04-27T15:33:21.228Z,32.08
2023-04-27T15:35:51.011Z,33.18
2023-04-27T15:38:23.599Z,32.67
2023-04-27T15:40:51.264Z,32.53
2023-04-27T15:43:19.162Z,33.47
2023-04-27T15:45:46.573Z,33.47
2023-04-27T15:48:14.230Z,32.38
2023-04-27T15:50:42.173Z,32.75
2023-04-27T15:53:09.465Z,32.45
2023-04-27T15:55:40.563Z,33.14
2023-04-27T15:58:11.066Z,32.67
2023-04-27T16:00:38.512Z,32.67
2023-04-27T16:03:09.425Z,32.66
2023-04-27T16:05:38.152Z,33.31
2023-04-27T16:08:06.209Z,33.75
2023-04-27T16:10:34.019Z,33.08
2023-04-27T16:13:01.722Z,33.05
2023-04-27T16:15:29.670Z,33.39
2023-04-27T16:17:57.186Z,33.86
2023-04-27T16:20:25.566Z,33.90
2023-04-27T16:22:57.164Z,33.44
2023-04-27T16:25:24.460Z,34.16
2023-04-27T16:27:52.321Z,34.14
2023-04-27T16:30:20.205Z,33.79
2023-04-27T16:32:48.197Z,34.12
2023-04-27T16:35:15.569Z,33.85
2023-04-27T16:37:43.187Z,34.11
2023-04-27T16:40:11.106Z,33.57
2023-04-27T16:42:38.712Z,34.04
2023-04-27T16:45:09.075Z,33.86
2023-04-27T16:47:38.449Z,34.07
2023-04-27T16:50:06.764Z,34.42
2023-04-27T16:52:34.061Z,35.50
2023-04-27T16:55:01.480Z,35.50
2023-04-27T16:57:29.178Z,35.19
2023-04-27T16:59:56.488Z,35.48
2023-04-27T17:02:25.628Z,35.22
2023-04-27T17:04:57.761Z,35.29
2023-04-27T17:07:28.694Z,35.15
2023-04-27T17:09:56.395Z,35.87
2023-04-27T17:12:23.716Z,35.83
2023-04-27T17:14:51.061Z,35.53
2023-04-27T17:17:18.666Z,35.69
2023-04-27T17:19:46.647Z,35.50
2023-04-27T17:22:14.966Z,35.87
2023-04-27T17:24:42.370Z,35.69
2023-04-27T17:27:09.891Z,36.53
2023-04-27T17:29:37.504Z,37.05
2023-04-27T17:32:05.758Z,37.05
2023-04-27T17:34:33.250Z,37.50
2023-04-27T17:37:00.906Z,38.06
2023-04-27T17:39:28.847Z,38.35
2023-04-27T17:41:57.093Z,39.14
2023-04-27T17:44:24.506Z,39.38
2023-04-27T17:46:52.505Z,39.40
2023-04-27T17:49:19.729Z,39.89
2023-04-27T17:51:48.557Z,40.13
2023-04-27T17:54:16.218Z,40.13
2023-04-27T17:56:44.453Z,40.32
2023-04-27T17:59:11.760Z,40.30
2023-04-27T18:01:39.574Z,40.43
2023-04-27T18:04:07.530Z,41.68
2023-04-27T18:06:35.216Z,42.46
2023-04-27T18:09:03.212Z,43.24
2023-04-27T18:11:30.750Z,43.30
2023-04-27T18:13:59.749Z,44.09
2023-04-27T18:16:27.462Z,44.50
2023-04-27T18:18:56.849Z,45.26
2023-04-27T18:21:30.044Z,45.88
2023-04-27T18:23:58.283Z,46.81
2023-04-27T18:26:25.837Z,47.89
2023-04-27T18:28:53.887Z,48.53
2023-04-27T18:31:24.285Z,49.78
2023-04-27T18:33:52.216Z,50.52
2023-04-27T18:36:21.204Z,51.80
2023-04-27T18:38:48.919Z,51.13
2023-04-27T18:41:16.779Z,53.27
2023-04-27T18:43:44.281Z,53.51
2023-04-27T18:46:12.379Z,54.51
2023-04-27T18:48:41.224Z,55.74
2023-04-27T18:51:09.140Z,55.88
2023-04-27T18:53:37.383Z,56.12
2023-04-27T18:56:06.349Z,56.46
2023-04-27T18:58:35.035Z,57.88
2023-04-27T19:01:03.440Z,57.94
2023-04-27T19:03:31.348Z,58.34
2023-04-27T19:06:00.901Z,59.82
2023-04-27T19:08:29.173Z,60.34
2023-04-27T19:10:58.461Z,60.71
2023-04-27T19:13:25.992Z,61.18
2023-04-27T19:15:53.644Z,61.33
2023-04-27T19:18:21.185Z,62.38
2023-04-27T19:20:49.599Z,62.30
2023-04-27T19:23:20.312Z,62.36
2023-04-27T19:25:48.424Z,62.94
2023-04-27T19:28:16.814Z,63.76
2023-04-27T19:30:48.204Z,64.95
2023-04-27T19:33:19.661Z,64.35
2023-04-27T19:35:48.728Z,64.82
2023-04-27T19:38:16.161Z,64.47
2023-04-27T19:40:43.564Z,65.13
2023-04-27T19:43:12.124Z,65.25
2023-04-27T19:45:42.152Z,65.38
2023-04-27T19:48:10.317Z,65.59
2023-04-27T19:50:41.890Z,66.50
2023-04-27T19:53:10.248Z,66.38
2023-04-27T19:55:38.229Z,66.47
2023-04-27T19:58:05.565Z,67.60
2023-04-27T20:00:33.656Z,66.96
2023-04-27T20:03:01.490Z,66.80
2023-04-27T20:05:29.164Z,66.99
2023-04-27T20:07:57.356Z,67.52
2023-04-27T20:10:24.928Z,67.86
2023-04-27T20:12:56.824Z,67.75
2023-04-27T20:15:25.895Z,68.84
2023-04-27T20:17:53.898Z,68.78
2023-04-27T20:20:21.281Z,68.27
2023-04-27T20:22:48.713Z,69.24
2023-04-27T20:25:16.067Z,69.57
2023-04-27T20:27:43.335Z,69.12
2023-04-27T20:30:11.701Z,68.68
2023-04-27T20:32:41.754Z,68.64
2023-04-27T20:35:11.917Z,68.49
2023-04-27T20:41:01.235Z,70.00
2023-04-27T20:46:59.593Z,71.24
2023-04-27T20:53:15.249Z,70.88
2023-04-27T20:59:30.273Z,70.48
2023-04-27T21:25:52.075Z,78.80
2023-04-27T21:38:29.589Z,81.06
2023-04-27T21:58:21.078Z,88.44
2023-04-27T22:00:48.806Z,86.50
2023-04-27T22:13:23.175Z,85.88
2023-04-27T22:19:38.163Z,86.24
2023-04-27T22:25:57.105Z,86.02
2023-04-27T22:32:11.183Z,87.83
2023-04-27T23:05:38.672Z,87.80
2023-04-27T23:08:06.835Z,89.68
2023-04-27T23:10:34.929Z,89.03
2023-04-27T23:13:04.341Z,88.46
2023-04-27T23:15:31.824Z,88.28
2023-04-27T23:17:59.304Z,87.92
2023-04-27T23:20:28.670Z,87.45
2023-04-27T23:22:56.921Z,88.26
2023-04-27T23:25:24.335Z,87.53
2023-04-27T23:27:52.577Z,87.18
2023-04-27T23:30:21.608Z,87.87
2023-04-27T23:32:49.050Z,87.96
2023-04-27T23:35:16.422Z,88.64
2023-04-27T23:37:44.432Z,88.32
2023-04-27T23:40:12.361Z,89.47
2023-04-27T23:42:39.558Z,90.63
2023-04-27T23:45:07.550Z,91.17
2023-04-27T23:47:34.880Z,92.63
2023-04-27T23:50:05.124Z,89.98
2023-04-27T23:52:32.725Z,92.17
2023-04-27T23:55:00.026Z,91.49
2023-04-27T23:57:27.204Z,93.16
2023-04-27T23:59:54.684Z,94.23
